Time;durP1;ratioP1;P1;durP2;ratioP2;P2;SDS_P1;SDS_P2;PMS_P1;PMS_P2;Temp;Humidity;BMP_temperature;BMP_pressure;BME280_temperature;BME280_humidity;BME280_pressure;Samples;Min_cycle;Max_cycle;Signal;HPM_P1;HPM_P2
2022/01/09 00:00:29;;;;;;;3.60;1.60;;;;;;;0.73;100.00;94332.63;5031275;28;21172;-86
2022/01/09 00:02:56;;;;;;;4.70;1.70;;;;;;;0.62;100.00;94334.47;5014272;28;20468;-86
2022/01/09 00:05:22;;;;;;;5.90;1.70;;;;;;;0.59;100.00;94324.41;5024538;28;20464;-87
2022/01/09 00:07:48;;;;;;;3.90;1.50;;;;;;;0.57;100.00;94313.41;5019366;28;20585;-87
2022/01/09 00:10:15;;;;;;;3.33;1.43;;;;;;;0.53;100.00;94309.47;5052106;28;20455;-85
2022/01/09 00:12:41;;;;;;;3.30;1.50;;;;;;;0.49;100.00;94295.22;5021375;28;20452;-86
2022/01/09 00:15:12;;;;;;;4.63;1.67;;;;;;;0.52;100.00;94291.53;5017551;28;21008;-86
2022/01/09 00:17:39;;;;;;;3.07;1.33;;;;;;;0.48;100.00;94285.84;5040801;28;20445;-87
2022/01/09 00:20:06;;;;;;;4.00;1.90;;;;;;;0.44;100.00;94282.72;5012734;28;20456;-85
2022/01/09 00:22:41;;;;;;;4.93;1.83;;;;;;;0.44;100.00;94276.75;5032973;28;20472;-86
2022/01/09 00:25:07;;;;;;;2.40;1.47;;;;;;;0.48;100.00;94283.25;5023691;28;20459;-87
2022/01/09 00:27:33;;;;;;;5.83;1.93;;;;;;;0.53;100.00;94273.25;5009459;28;20482;-87
2022/01/09 00:29:59;;;;;;;3.73;1.60;;;;;;;0.55;100.00;94261.00;5040131;28;20460;-87
2022/01/09 00:32:24;;;;;;;3.57;1.63;;;;;;;0.57;100.00;94256.50;5032902;28;20463;-86
2022/01/09 00:34:50;;;;;;;3.20;1.43;;;;;;;0.57;100.00;94263.44;5020809;28;20032;-87
2022/01/09 00:37:16;;;;;;;4.57;1.80;;;;;;;0.54;100.00;94256.81;5015415;28;20028;-87
2022/01/09 00:40:08;;;;;;;3.97;1.53;;;;;;;0.60;100.00;94253.59;5025071;28;20040;-86
2022/01/09 00:42:34;;;;;;;3.73;1.67;;;;;;;0.66;100.00;94247.84;5036400;28;20037;-88
2022/01/09 00:45:05;;;;;;;2.17;1.13;;;;;;;0.75;100.00;94245.34;5042974;28;20479;-88
2022/01/09 00:47:30;;;;;;;2.83;1.20;;;;;;;0.84;100.00;94245.28;5025377;28;20537;-87
2022/01/09 00:49:56;;;;;;;3.63;1.33;;;;;;;0.85;100.00;94236.53;5021890;28;20468;-88
2022/01/09 00:52:22;;;;;;;3.20;1.40;;;;;;;0.93;100.00;94235.78;5022801;28;20122;-88
2022/01/09 00:54:48;;;;;;;3.73;1.40;;;;;;;1.01;100.00;94228.09;5028150;28;20120;-88
2022/01/09 00:57:13;;;;;;;3.63;1.13;;;;;;;1.04;100.00;94214.03;5045300;28;20081;-88
2022/01/09 00:59:39;;;;;;;4.00;1.37;;;;;;;1.08;100.00;94216.19;5040831;28;20491;-88
2022/01/09 01:02:05;;;;;;;4.67;1.33;;;;;;;1.15;100.00;94206.84;5042684;28;20029;-89
2022/01/09 01:04:31;;;;;;;4.33;1.33;;;;;;;1.09;100.00;94219.56;5040682;28;20068;-88
2022/01/09 01:06:57;;;;;;;2.83;1.40;;;;;;;1.04;100.00;94214.88;5014584;28;20025;-88
2022/01/09 01:09:24;;;;;;;3.17;1.40;;;;;;;1.09;100.00;94211.81;5042270;28;20057;-88
2022/01/09 01:11:50;;;;;;;4.03;1.60;;;;;;;1.07;100.00;94205.97;5041120;28;20030;-88
2022/01/09 01:14:21;;;;;;;2.57;1.30;;;;;;;1.01;100.00;94204.81;5014072;28;20510;-88
2022/01/09 01:16:48;;;;;;;3.03;1.40;;;;;;;1.04;100.00;94196.75;5037296;28;20029;-87
2022/01/09 01:19:14;;;;;;;2.33;1.30;;;;;;;1.02;100.00;94190.91;5036026;28;20431;-88
2022/01/09 01:21:39;;;;;;;2.43;1.30;;;;;;;1.03;100.00;94205.47;5046427;28;20525;-88
2022/01/09 01:24:05;;;;;;;4.10;1.60;;;;;;;1.05;100.00;94200.94;5026280;28;20464;-88
2022/01/09 01:26:37;;;;;;;2.50;1.23;;;;;;;1.07;100.00;94185.25;5023098;28;20041;-88
2022/01/09 01:29:03;;;;;;;3.03;1.37;;;;;;;1.01;100.00;94189.28;5029384;28;20090;-87
2022/01/09 01:31:29;;;;;;;3.13;1.40;;;;;;;0.99;100.00;94178.25;5040361;28;20444;-87
2022/01/09 01:33:55;;;;;;;3.33;1.57;;;;;;;0.98;100.00;94183.59;5025270;28;20527;-87
2022/01/09 01:36:21;;;;;;;2.57;1.67;;;;;;;0.93;100.00;94181.44;5044834;28;20037;-87
2022/01/09 01:38:47;;;;;;;2.73;1.33;;;;;;;0.94;100.00;94181.31;5042922;28;20021;-87
2022/01/09 01:45:00;;;;;;;1.93;1.33;;;;;;;1.00;100.00;94174.69;5025835;28;20140;-88
2022/01/09 01:47:26;;;;;;;3.37;1.70;;;;;;;1.01;100.00;94166.00;5021697;28;20499;-87
2022/01/09 01:49:51;;;;;;;1.67;1.30;;;;;;;1.08;100.00;94163.59;5029662;28;20017;-87
2022/01/09 01:52:27;;;;;;;2.97;1.17;;;;;;;1.10;100.00;94157.28;5029314;28;20033;-87
2022/01/09 01:54:53;;;;;;;1.93;1.27;;;;;;;1.12;100.00;94160.56;5035331;28;20028;-87
2022/01/09 01:57:19;;;;;;;1.77;1.20;;;;;;;1.19;100.00;94155.56;5028396;28;20440;-87
2022/01/09 01:59:45;;;;;;;2.43;1.40;;;;;;;1.18;100.00;94154.75;4995837;28;20571;-88
2022/01/09 02:02:10;;;;;;;4.03;1.90;;;;;;;1.26;100.00;94155.78;5036740;28;20037;-87
2022/01/09 02:04:37;;;;;;;4.07;1.40;;;;;;;1.27;100.00;94153.00;5013250;28;20035;-87
2022/01/09 02:07:03;;;;;;;2.13;1.17;;;;;;;1.30;100.00;94144.13;5037216;28;20044;-86
2022/01/09 02:09:29;;;;;;;2.03;1.30;;;;;;;1.30;100.00;94151.91;5014875;28;20468;-87
2022/01/09 02:11:55;;;;;;;3.43;1.43;;;;;;;1.34;100.00;94154.06;5034673;28;20564;-87
2022/01/09 02:14:21;;;;;;;2.50;1.90;;;;;;;1.32;100.00;94137.03;5019772;28;21013;-85
2022/01/09 02:16:49;;;;;;;2.03;0.87;;;;;;;1.35;100.00;94142.72;5035214;28;20124;-87
2022/01/09 02:19:16;;;;;;;2.07;0.90;;;;;;;1.43;100.00;94131.56;5010015;28;20056;-86
2022/01/09 02:21:46;;;;;;;1.77;0.70;;;;;;;1.48;100.00;94125.94;5017313;28;20824;-86
2022/01/09 02:24:13;;;;;;;2.33;0.80;;;;;;;1.49;100.00;94130.97;5028640;28;20456;-86
2022/01/09 02:26:40;;;;;;;0.67;0.47;;;;;;;1.56;100.00;94131.97;5015022;28;20447;-86
2022/01/09 02:29:07;;;;;;;0.83;0.50;;;;;;;1.61;100.00;94136.66;5012823;28;20530;-86
2022/01/09 02:31:34;;;;;;;0.97;0.50;;;;;;;1.59;100.00;94139.41;5038633;28;20472;-87
2022/01/09 02:34:00;;;;;;;0.40;0.40;;;;;;;1.55;100.00;94119.19;5033706;28;20452;-86
2022/01/09 02:36:26;;;;;;;1.27;0.50;;;;;;;1.63;100.00;94117.41;5039304;28;20533;-86
2022/01/09 02:38:51;;;;;;;0.73;0.50;;;;;;;1.64;100.00;94106.09;5040078;28;20364;-85
2022/01/09 02:41:18;;;;;;;1.90;0.50;;;;;;;1.64;100.00;94113.88;5029531;28;20512;-86
2022/01/09 02:43:44;;;;;;;0.30;0.20;;;;;;;1.70;100.00;94114.19;5012212;28;20075;-86
2022/01/09 02:48:52;;;;;;;0.50;0.40;;;;;;;1.69;100.00;94115.16;5018854;28;20480;-85
2022/01/09 02:51:18;;;;;;;0.60;0.40;;;;;;;1.73;100.00;94111.28;5032458;28;20487;-85
2022/01/09 02:53:56;;;;;;;1.27;0.47;;;;;;;1.76;100.00;94109.19;5042740;28;20456;-85
2022/01/09 02:56:22;;;;;;;1.03;0.33;;;;;;;1.72;100.00;94110.50;5054592;28;20057;-86
2022/01/09 02:58:48;;;;;;;0.50;0.30;;;;;;;1.78;100.00;94103.88;5033790;28;20400;-85
2022/01/09 03:01:14;;;;;;;1.83;0.40;;;;;;;1.72;100.00;94114.88;5009438;28;20097;-85
2022/01/09 03:03:40;;;;;;;0.97;0.53;;;;;;;1.78;100.00;94106.47;5017442;28;20495;-86
2022/01/09 03:06:08;;;;;;;0.60;0.30;;;;;;;1.80;100.00;94112.28;5036521;28;20034;-86
2022/01/09 03:08:33;;;;;;;0.90;0.50;;;;;;;1.81;100.00;94109.56;5030211;28;20033;-86
2022/01/09 03:11:03;;;;;;;0.77;0.40;;;;;;;1.78;100.00;94109.06;5027263;28;20064;-86
2022/01/09 03:13:29;;;;;;;0.43;0.20;;;;;;;1.81;100.00;94108.72;5019125;28;20037;-86
2022/01/09 03:15:55;;;;;;;0.20;0.20;;;;;;;1.90;100.00;94120.72;5027071;28;20814;-86
2022/01/09 03:18:21;;;;;;;0.67;0.30;;;;;;;1.81;100.00;94111.31;5016018;28;20048;-86
2022/01/09 03:20:47;;;;;;;1.13;0.30;;;;;;;1.78;100.00;94106.47;5017414;28;20407;-86
2022/01/09 03:23:18;;;;;;;0.83;0.40;;;;;;;1.76;100.00;94106.59;5034749;28;20033;-86
2022/01/09 03:25:43;;;;;;;0.93;0.33;;;;;;;1.85;100.00;94102.28;5035108;28;20162;-86
2022/01/09 03:28:09;;;;;;;1.77;0.70;;;;;;;1.79;100.00;94102.91;5024255;28;20045;-87
2022/01/09 03:30:35;;;;;;;2.17;0.70;;;;;;;2.08;100.00;94086.91;5038962;28;20064;-86
2022/01/09 03:33:01;;;;;;;2.30;0.70;;;;;;;2.27;100.00;94094.38;5039259;28;20038;-86
2022/01/09 03:35:28;;;;;;;1.53;0.53;;;;;;;2.27;100.00;94094.38;5046366;28;20025;-86
2022/01/09 03:37:54;;;;;;;0.57;0.40;;;;;;;2.27;100.00;94102.16;5003548;28;20618;-86
2022/01/09 03:40:23;;;;;;;0.50;0.20;;;;;;;2.26;100.00;94102.31;5018907;28;20033;-87
2022/01/09 03:42:51;;;;;;;1.40;0.60;;;;;;;2.37;100.00;94104.59;5040864;28;20041;-87
2022/01/09 03:45:18;;;;;;;1.27;0.40;;;;;;;2.38;100.00;94095.03;5007891;28;20381;-86
2022/01/09 03:47:44;;;;;;;0.47;0.20;;;;;;;2.39;100.00;94097.47;5032274;28;20030;-87
2022/01/09 03:50:12;;;;;;;0.53;0.20;;;;;;;2.37;100.00;94096.81;5033629;28;20032;-86
2022/01/09 03:52:39;;;;;;;1.10;0.50;;;;;;;2.39;100.00;94091.47;5042749;28;20075;-86
2022/01/09 03:55:07;;;;;;;0.60;0.30;;;;;;;2.37;100.00;94091.63;5043507;28;20060;-86
2022/01/09 03:57:33;;;;;;;2.23;0.60;;;;;;;2.39;100.00;94087.09;5018087;28;20084;-87
2022/01/09 03:59:58;;;;;;;1.43;0.30;;;;;;;2.41;100.00;94097.31;5047624;28;20036;-86
2022/01/09 04:02:24;;;;;;;0.53;0.20;;;;;;;2.43;100.00;94088.38;5040014;28;20548;-85
2022/01/09 04:04:50;;;;;;;1.50;0.40;;;;;;;2.45;100.00;94094.25;5032983;28;20029;-86
2022/01/09 04:07:17;;;;;;;0.63;0.20;;;;;;;2.41;100.00;94095.50;5015634;28;20408;-86
2022/01/09 04:09:45;;;;;;;0.97;0.20;;;;;;;2.35;100.00;94096.19;5038240;28;20775;-86
2022/01/09 04:12:31;;;;;;;0.13;0.00;;;;;;;2.35;100.00;94098.78;5023079;28;20036;-86
2022/01/09 04:14:57;;;;;;;1.27;0.40;;;;;;;2.31;100.00;94097.44;5030730;28;20044;-86
2022/01/09 04:17:51;;;;;;;0.67;0.20;;;;;;;2.30;100.00;94093.25;5045146;28;20037;-86
2022/01/09 04:20:26;;;;;;;0.27;0.10;;;;;;;2.20;100.00;94103.78;5036049;28;20045;-86
2022/01/09 04:22:53;;;;;;;0.30;0.10;;;;;;;2.18;100.00;94105.72;5029464;28;20495;-86
2022/01/09 04:25:19;;;;;;;1.60;0.17;;;;;;;2.19;100.00;94106.53;5022388;28;20111;-87
2022/01/09 04:27:47;;;;;;;0.87;0.20;;;;;;;2.20;100.00;94108.97;5039142;28;20111;-87
2022/01/09 04:30:14;;;;;;;0.20;0.20;;;;;;;2.20;100.00;94118.53;5039524;28;20129;-87
2022/01/09 04:32:40;;;;;;;0.63;0.20;;;;;;;2.19;100.00;94114.31;5039972;28;20032;-87
2022/01/09 04:35:07;;;;;;;0.27;0.10;;;;;;;2.16;100.00;94118.03;5031114;28;20781;-86
2022/01/09 04:37:34;;;;;;;1.50;0.10;;;;;;;2.15;100.00;94133.72;5014809;28;20085;-87
2022/01/09 04:40:06;;;;;;;0.57;0.17;;;;;;;1.98;100.00;94128.53;5023048;28;20091;-87
2022/01/09 04:42:42;;;;;;;0.10;0.10;;;;;;;1.91;100.00;94124.94;5032568;28;20889;-88
2022/01/09 04:45:09;;;;;;;0.27;0.20;;;;;;;1.91;100.00;94140.47;5022606;28;20036;-88
2022/01/09 04:47:35;;;;;;;0.10;0.10;;;;;;;1.82;100.00;94131.09;5037852;28;20033;-88
2022/01/09 04:50:53;;;;;;;1.07;0.10;;;;;;;1.80;100.00;94144.19;5027708;28;20124;-88
2022/01/09 04:53:26;;;;;;;0.00;0.00;;;;;;;1.83;100.00;94145.66;5025828;28;20033;-88
2022/01/09 04:55:51;;;;;;;0.20;0.10;;;;;;;1.82;100.00;94151.81;5037068;28;20502;-88
2022/01/09 04:58:18;;;;;;;0.43;0.10;;;;;;;1.81;100.00;94155.34;5015789;28;20033;-88
2022/01/09 05:00:45;;;;;;;0.33;0.13;;;;;;;1.78;100.00;94150.50;5037844;28;20037;-88
2022/01/09 05:03:13;;;;;;;0.00;0.00;;;;;;;1.81;100.00;94157.94;5030900;28;20037;-88
2022/01/09 05:05:39;;;;;;;0.17;0.17;;;;;;;1.87;100.00;94149.56;5022328;28;20120;-88
2022/01/09 05:08:06;;;;;;;0.07;0.00;;;;;;;1.95;100.00;94143.59;5027954;28;20392;-88
2022/01/09 05:10:34;;;;;;;1.27;0.20;;;;;;;1.98;100.00;94146.69;5027776;28;20032;-88
2022/01/09 05:12:59;;;;;;;0.00;0.00;;;;;;;1.98;100.00;94162.25;5046365;28;20033;-87
2022/01/09 05:15:25;;;;;;;0.30;0.10;;;;;;;1.96;100.00;94178.91;5042805;28;20044;-88
2022/01/09 05:17:57;;;;;;;0.83;0.20;;;;;;;1.94;100.00;94167.88;5051424;28;20057;-87
2022/01/09 05:20:22;;;;;;;0.47;0.20;;;;;;;1.92;100.00;94168.06;5022162;28;20038;-87
2022/01/09 05:22:48;;;;;;;0.70;0.20;;;;;;;1.99;100.00;94179.41;5022460;28;20044;-87
2022/01/09 05:25:14;;;;;;;0.13;0.10;;;;;;;2.03;100.00;94190.28;5025471;28;20040;-86
2022/01/09 05:27:39;;;;;;;0.10;0.10;;;;;;;2.04;100.00;94194.47;5042916;28;20085;-88
2022/01/09 05:30:06;;;;;;;0.10;0.10;;;;;;;1.98;100.00;94206.31;5042235;28;20104;-87
2022/01/09 05:32:32;;;;;;;0.87;0.10;;;;;;;2.07;100.00;94202.75;5039474;28;20033;-87
2022/01/09 05:34:57;;;;;;;1.40;0.20;;;;;;;2.07;100.00;94204.53;5035337;28;20427;-87
2022/01/09 05:37:23;;;;;;;0.10;0.10;;;;;;;2.06;100.00;94218.47;5038561;28;20029;-87
2022/01/09 05:39:49;;;;;;;0.20;0.10;;;;;;;1.97;100.00;94230.59;5037832;28;20025;-87
2022/01/09 05:42:15;;;;;;;1.10;0.40;;;;;;;1.89;100.00;94241.75;5039767;28;20025;-87
2022/01/09 05:44:41;;;;;;;2.83;1.00;;;;;;;1.87;100.00;94269.59;5045088;28;20044;-88
2022/01/09 05:47:06;;;;;;;0.10;0.10;;;;;;;1.83;100.00;94268.28;5042257;28;20025;-86
2022/01/09 05:49:32;;;;;;;0.10;0.00;;;;;;;1.75;100.00;94270.03;5032763;28;20036;-87
2022/01/09 05:51:58;;;;;;;0.47;0.10;;;;;;;1.70;100.00;94282.63;5034233;28;20123;-87
2022/01/09 05:54:24;;;;;;;0.03;0.03;;;;;;;1.62;100.00;94283.38;5029500;28;20095;-87
2022/01/09 05:56:51;;;;;;;0.60;0.07;;;;;;;1.54;100.00;94302.28;5039913;28;20112;-88
2022/01/09 05:59:18;;;;;;;1.90;0.00;;;;;;;1.46;100.00;94306.59;5029710;28;20036;-87
2022/01/09 06:01:44;;;;;;;0.10;0.00;;;;;;;1.42;100.00;94324.22;5035750;28;20036;-87
2022/01/09 06:04:20;;;;;;;0.10;0.10;;;;;;;1.33;100.00;94332.88;5041277;28;20034;-88
2022/01/09 06:06:46;;;;;;;0.60;0.10;;;;;;;1.22;100.00;94336.50;5041947;28;20067;-88
2022/01/09 06:09:12;;;;;;;0.47;0.10;;;;;;;1.15;100.00;94349.22;5033164;28;20541;-88
2022/01/09 06:11:37;;;;;;;0.00;0.00;;;;;;;1.09;100.00;94349.00;5025906;28;20060;-87
2022/01/09 06:14:03;;;;;;;0.00;0.00;;;;;;;1.00;100.00;94358.47;5025470;28;20044;-87
2022/01/09 06:16:29;;;;;;;0.17;0.03;;;;;;;1.00;100.00;94368.00;5017075;28;20067;-88
2022/01/09 06:18:55;;;;;;;0.00;0.00;;;;;;;0.94;100.00;94374.59;5049775;28;20098;-88
2022/01/09 06:21:21;;;;;;;0.07;0.07;;;;;;;0.90;100.00;94376.63;5032453;28;20040;-88
2022/01/09 06:23:46;;;;;;;0.00;0.00;;;;;;;0.85;100.00;94389.22;5035572;28;20033;-88
2022/01/09 06:26:12;;;;;;;2.63;0.23;;;;;;;0.83;100.00;94405.84;5040725;28;20517;-88
2022/01/09 06:28:38;;;;;;;0.00;0.00;;;;;;;0.79;100.00;94401.91;5035163;28;20038;-88
2022/01/09 06:31:03;;;;;;;0.10;0.07;;;;;;;0.80;100.00;94416.47;5034609;28;20457;-88
2022/01/09 06:33:29;;;;;;;0.30;0.07;;;;;;;0.77;100.00;94424.53;5040647;28;20100;-87
2022/01/09 06:35:58;;;;;;;0.00;0.00;;;;;;;0.77;100.00;94429.69;5050960;28;20526;-89
2022/01/09 06:38:24;;;;;;;0.10;0.03;;;;;;;0.73;100.00;94441.28;5047541;28;20029;-88
2022/01/09 06:40:49;;;;;;;0.00;0.00;;;;;;;0.68;100.00;94444.31;5069135;28;20440;-88
2022/01/09 06:43:15;;;;;;;0.40;0.10;;;;;;;0.61;100.00;94449.25;5040157;28;20010;-88
2022/01/09 06:45:41;;;;;;;0.00;0.00;;;;;;;0.57;100.00;94450.50;5030673;28;20110;-88
2022/01/09 06:48:06;;;;;;;0.00;0.00;;;;;;;0.58;100.00;94457.28;5045091;28;20079;-88
2022/01/09 06:50:32;;;;;;;0.30;0.10;;;;;;;0.55;100.00;94461.94;5035208;28;20047;-88
2022/01/09 06:52:58;;;;;;;0.60;0.13;;;;;;;0.52;100.00;94460.44;5025859;28;20020;-88
2022/01/09 06:55:24;;;;;;;1.10;0.20;;;;;;;0.49;100.00;94476.25;5033703;28;20029;-88
2022/01/09 06:57:50;;;;;;;1.33;0.30;;;;;;;0.47;100.00;94475.59;5035441;28;20029;-88
2022/01/09 07:00:17;;;;;;;0.50;0.20;;;;;;;0.48;100.00;94479.78;5045037;28;20029;-88
2022/01/09 07:02:44;;;;;;;1.70;0.63;;;;;;;0.47;100.00;94486.75;5034354;28;20488;-87
2022/01/09 07:05:10;;;;;;;3.00;1.33;;;;;;;0.49;100.00;94498.69;5042961;28;20456;-88
2022/01/09 07:07:36;;;;;;;1.77;0.37;;;;;;;0.45;100.00;94486.06;5035296;28;20459;-88
2022/01/09 07:10:02;;;;;;;2.17;0.30;;;;;;;0.47;100.00;94512.59;5025380;28;21073;-88
2022/01/09 07:13:15;;;;;;;0.70;0.33;;;;;;;0.42;100.00;94513.97;5043525;28;20033;-88
2022/01/09 07:15:41;;;;;;;0.60;0.30;;;;;;;0.39;100.00;94515.06;5033721;28;20484;-88
2022/01/09 07:18:07;;;;;;;1.13;0.50;;;;;;;0.33;100.00;94514.78;5009594;28;20452;-88
2022/01/09 07:20:34;;;;;;;2.17;0.33;;;;;;;0.32;100.00;94524.31;5046455;28;20453;-87
2022/01/09 07:23:00;;;;;;;2.00;0.40;;;;;;;0.28;100.00;94529.91;5038265;28;20026;-87
2022/01/09 07:25:25;;;;;;;0.40;0.30;;;;;;;0.28;100.00;94532.50;5047281;28;20463;-87
2022/01/09 07:27:51;;;;;;;2.30;0.30;;;;;;;0.30;100.00;94540.91;5033338;28;20061;-87
2022/01/09 07:30:17;;;;;;;1.77;0.53;;;;;;;0.31;100.00;94552.91;5043616;28;20025;-88
2022/01/09 07:32:45;;;;;;;2.07;0.47;;;;;;;0.32;100.00;94549.38;5034207;28;20037;-88
2022/01/09 07:35:11;;;;;;;2.40;0.93;;;;;;;0.32;100.00;94562.28;5042022;28;20037;-88
2022/01/09 07:37:37;;;;;;;1.93;0.87;;;;;;;0.30;100.00;94565.00;5041886;28;20845;-87
2022/01/09 07:40:03;;;;;;;2.83;0.73;;;;;;;0.34;100.00;94575.91;5025672;28;20395;-88
2022/01/09 07:42:29;;;;;;;0.70;0.50;;;;;;;0.30;100.00;94582.28;5018377;28;20491;-88
2022/01/09 07:44:55;;;;;;;1.10;0.70;;;;;;;0.31;100.00;94589.91;5008967;28;20554;-88
2022/01/09 07:47:21;;;;;;;1.63;0.80;;;;;;;0.28;100.00;94585.03;5036070;28;20452;-88
2022/01/09 07:49:47;;;;;;;6.60;2.40;;;;;;;0.27;100.00;94598.06;5040449;28;20084;-87
2022/01/09 07:52:16;;;;;;;3.83;1.20;;;;;;;0.24;100.00;94606.94;5010427;28;20025;-87
2022/01/09 07:54:41;;;;;;;1.83;0.70;;;;;;;0.23;100.00;94602.69;5033104;28;20415;-88
2022/01/09 07:57:07;;;;;;;2.33;0.83;;;;;;;0.21;100.00;94615.78;5036707;28;20454;-88
2022/01/09 07:59:33;;;;;;;2.50;1.00;;;;;;;0.19;100.00;94615.09;5041602;28;20041;-88
2022/01/09 08:01:58;;;;;;;1.80;0.90;;;;;;;0.17;100.00;94622.19;5021337;28;20034;-88
2022/01/09 08:04:24;;;;;;;8.43;3.63;;;;;;;0.14;100.00;94627.63;5041736;28;20025;-88
2022/01/09 08:06:50;;;;;;;7.60;3.03;;;;;;;0.13;100.00;94638.88;5040343;28;20038;-88
2022/01/09 08:09:15;;;;;;;3.07;1.10;;;;;;;0.06;100.00;94648.13;5033032;28;20087;-87
2022/01/09 08:11:41;;;;;;;2.33;1.13;;;;;;;0.06;100.00;94653.28;5023425;28;20040;-87
2022/01/09 08:14:07;;;;;;;3.47;1.77;;;;;;;0.01;100.00;94652.09;5045350;28;20029;-87
2022/01/09 08:16:32;;;;;;;1.93;1.23;;;;;;;-0.01;100.00;94667.72;5041305;28;20052;-86
2022/01/09 08:18:58;;;;;;;1.13;0.60;;;;;;;0.00;100.00;94669.38;5032369;28;20033;-87
2022/01/09 08:21:24;;;;;;;1.63;0.80;;;;;;;-0.03;100.00;94669.63;5035594;28;20678;-86
2022/01/09 08:23:50;;;;;;;2.00;1.10;;;;;;;0.02;100.00;94674.38;5044205;28;20486;-87
2022/01/09 08:26:17;;;;;;;3.00;1.50;;;;;;;-0.01;100.00;94683.22;5042484;28;20407;-87
2022/01/09 08:28:45;;;;;;;2.53;1.43;;;;;;;-0.05;100.00;94694.78;5031893;28;20475;-87
2022/01/09 08:31:11;;;;;;;4.97;2.20;;;;;;;-0.02;100.00;94694.50;5029728;28;20597;-89
2022/01/09 08:33:38;;;;;;;1.83;1.00;;;;;;;0.02;100.00;94687.31;5044505;28;20981;-88
2022/01/09 08:36:04;;;;;;;3.10;1.70;;;;;;;0.01;100.00;94694.25;5037575;28;20987;-88
2022/01/09 08:38:30;;;;;;;5.30;2.00;;;;;;;0.02;100.00;94702.81;5045698;28;21208;-88
2022/01/09 08:40:56;;;;;;;3.37;1.60;;;;;;;0.06;100.00;94705.00;5053028;28;20470;-88
2022/01/09 08:43:22;;;;;;;2.97;1.37;;;;;;;0.11;100.00;94714.94;5034577;28;21148;-89
2022/01/09 08:45:52;;;;;;;3.63;1.77;;;;;;;0.13;100.00;94713.84;5025659;28;20478;-89
2022/01/09 08:48:48;;;;;;;4.50;1.50;;;;;;;0.24;100.00;94712.94;5025348;28;20572;-89
2022/01/09 08:51:17;;;;;;;5.50;1.90;;;;;;;0.25;100.00;94714.56;5023582;28;21102;-89
2022/01/09 08:53:52;;;;;;;4.10;1.80;;;;;;;0.33;100.00;94719.06;5007891;28;20479;-89
2022/01/09 08:56:27;;;;;;;8.37;1.73;;;;;;;0.44;100.00;94729.28;5025948;28;20510;-90
2022/01/09 08:59:01;;;;;;;4.40;1.73;;;;;;;0.60;100.00;94723.56;5049406;28;20997;-89
2022/01/09 09:01:28;;;;;;;3.23;1.57;;;;;;;0.62;100.00;94742.38;5023463;28;20471;-89
2022/01/09 09:03:53;;;;;;;5.57;1.80;;;;;;;0.73;100.00;94739.63;5036202;28;20471;-85
2022/01/09 09:06:19;;;;;;;4.77;1.23;;;;;;;0.76;100.00;94748.91;5040179;28;20464;-85
2022/01/09 09:08:45;;;;;;;7.17;1.90;;;;;;;0.72;100.00;94758.72;5024720;28;20144;-85
2022/01/09 09:11:12;;;;;;;14.30;4.47;;;;;;;0.77;100.00;94755.72;5039918;28;20071;-85
2022/01/09 09:13:38;;;;;;;6.77;2.33;;;;;;;0.82;100.00;94772.47;5031271;28;20033;-86
2022/01/09 09:16:05;;;;;;;10.03;2.77;;;;;;;0.87;100.00;94772.06;5040422;28;20471;-85
2022/01/09 09:18:32;;;;;;;9.83;2.43;;;;;;;0.84;100.00;94775.75;5042302;28;20499;-85
2022/01/09 09:20:58;;;;;;;10.67;3.53;;;;;;;0.83;100.00;94789.63;5049360;28;20459;-85
2022/01/09 09:23:24;;;;;;;9.93;4.77;;;;;;;0.84;100.00;94785.25;5042754;28;20460;-85
2022/01/09 09:25:50;;;;;;;9.17;2.30;;;;;;;0.87;100.00;94798.78;5031463;28;20467;-85
2022/01/09 09:28:23;;;;;;;9.40;2.30;;;;;;;0.89;100.00;94803.81;5040593;28;20103;-85
2022/01/09 09:30:49;;;;;;;8.55;1.65;;;;;;;0.89;100.00;94802.03;5054108;28;20479;-85
2022/01/09 09:33:15;;;;;;;14.77;7.07;;;;;;;0.99;100.00;94801.22;5033330;28;20034;-85
2022/01/09 09:35:41;;;;;;;46.87;24.07;;;;;;;0.97;100.00;94813.47;5056128;28;20301;-84
2022/01/09 09:38:06;;;;;;;17.47;6.83;;;;;;;0.98;100.00;94810.78;5047506;28;20033;-84
2022/01/09 09:40:32;;;;;;;15.43;7.23;;;;;;;1.00;100.00;94815.78;5039884;28;20117;-85
2022/01/09 09:42:59;;;;;;;19.60;9.23;;;;;;;0.99;100.00;94821.94;5028215;28;20025;-85
2022/01/09 09:45:25;;;;;;;10.10;3.53;;;;;;;1.03;100.00;94829.28;5028960;28;21117;-84
2022/01/09 09:47:52;;;;;;;16.13;5.23;;;;;;;1.07;100.00;94824.66;5015843;28;20530;-84
2022/01/09 09:50:19;;;;;;;12.97;4.60;;;;;;;1.03;100.00;94831.88;5040745;28;20024;-84
2022/01/09 09:52:46;;;;;;;9.17;2.50;;;;;;;1.04;100.00;94835.28;5036451;28;20464;-85
2022/01/09 09:55:13;;;;;;;8.87;2.97;;;;;;;1.04;100.00;94836.13;5047738;28;20459;-85
2022/01/09 09:57:43;;;;;;;15.73;3.50;;;;;;;1.05;100.00;94845.50;5048401;28;20566;-85
2022/01/09 10:00:19;;;;;;;10.47;3.73;;;;;;;1.03;100.00;94844.00;5032062;28;20447;-85
2022/01/09 10:02:59;;;;;;;8.53;2.80;;;;;;;1.04;100.00;94845.63;4995830;28;21110;-85
2022/01/09 10:05:37;;;;;;;8.27;1.80;;;;;;;1.06;100.00;94841.16;5048181;28;20037;-85
2022/01/09 10:08:15;;;;;;;10.23;3.00;;;;;;;1.08;100.00;94847.00;5025843;28;20464;-85
2022/01/09 10:10:48;;;;;;;9.43;2.90;;;;;;;1.06;100.00;94848.91;5024461;28;20506;-85
2022/01/09 10:13:19;;;;;;;10.15;2.55;;;;;;;1.05;100.00;94853.28;5031312;28;20507;-84
2022/01/09 10:15:59;;;;;;;10.30;3.30;;;;;;;1.08;100.00;94853.00;5023372;28;20042;-85
2022/01/09 10:18:43;;;;;;;9.77;2.23;;;;;;;1.09;100.00;94865.00;5039704;28;20978;-85
2022/01/09 10:21:13;;;;;;;17.23;6.40;;;;;;;1.13;100.00;94863.75;5048164;28;20457;-84
2022/01/09 10:24:07;;;;;;;12.10;3.73;;;;;;;1.09;100.00;94865.00;5017692;28;20054;-85
2022/01/09 10:26:48;;;;;;;8.52;3.28;;;;;;;1.14;100.00;94864.56;5042010;28;20532;-84
2022/01/09 10:29:14;;;;;;;10.37;2.30;;;;;;;1.13;100.00;94874.13;5036030;28;20037;-85
2022/01/09 10:31:42;;;;;;;10.60;1.50;;;;;;;1.14;100.00;94872.34;5019111;28;20056;-85
2022/01/09 10:34:10;;;;;;;8.97;1.83;;;;;;;1.18;100.00;94879.72;5049667;28;20033;-84
2022/01/09 10:36:48;;;;;;;7.40;1.80;;;;;;;1.17;100.00;94877.25;5047028;28;20462;-84
2022/01/09 10:39:26;;;;;;;6.17;1.77;;;;;;;1.15;100.00;94877.41;5029938;28;20059;-84
2022/01/09 10:42:02;;;;;;;8.47;1.70;;;;;;;1.20;100.00;94886.53;5073383;28;20455;-82
2022/01/09 10:44:32;;;;;;;9.90;3.20;;;;;;;1.18;100.00;94884.91;5038279;28;20476;-84
2022/01/09 10:46:59;;;;;;;8.47;1.63;;;;;;;1.18;100.00;94890.06;5025001;28;20464;-84
2022/01/09 10:49:36;;;;;;;15.33;2.73;;;;;;;1.23;100.00;94887.06;5014072;28;20468;-84
2022/01/09 10:52:17;;;;;;;9.57;2.63;;;;;;;1.30;100.00;94887.34;5032827;28;20033;-84
2022/01/09 10:54:46;;;;;;;9.53;1.70;;;;;;;1.32;100.00;94885.47;5008226;28;20459;-84
2022/01/09 10:57:24;;;;;;;10.87;2.10;;;;;;;1.33;100.00;94897.44;5014682;28;20504;-84
2022/01/09 10:59:50;;;;;;;6.63;1.73;;;;;;;1.33;100.00;94902.63;5028224;28;20029;-84
2022/01/09 11:02:17;;;;;;;9.57;2.40;;;;;;;1.40;100.00;94898.53;5017544;28;20079;-84
2022/01/09 11:04:44;;;;;;;6.27;1.47;;;;;;;1.46;100.00;94905.75;5030977;28;20466;-84
2022/01/09 11:07:12;;;;;;;8.20;2.43;;;;;;;1.47;100.00;94909.97;5014679;28;20033;-84
2022/01/09 11:09:43;;;;;;;9.97;2.57;;;;;;;1.51;100.00;94913.97;5041641;28;20132;-84
2022/01/09 11:12:10;;;;;;;8.33;1.50;;;;;;;1.48;100.00;94914.22;5044830;28;20037;-84
2022/01/09 11:14:41;;;;;;;6.33;1.73;;;;;;;1.47;100.00;94919.53;5025100;28;20064;-84
2022/01/09 11:17:08;;;;;;;6.40;1.97;;;;;;;1.50;100.00;94919.25;5016623;28;20033;-84
2022/01/09 11:19:35;;;;;;;6.07;1.30;;;;;;;1.51;100.00;94913.13;5014375;28;20709;-84
2022/01/09 11:22:06;;;;;;;12.83;3.57;;;;;;;1.49;100.00;94917.63;5039733;28;20048;-84
2022/01/09 11:25:23;;;;;;;6.47;1.30;;;;;;;1.51;100.00;94915.72;5029288;28;20033;-84
2022/01/09 11:28:05;;;;;;;14.63;3.80;;;;;;;1.48;100.00;94916.81;4978824;28;20045;-84
2022/01/09 11:31:10;;;;;;;10.00;2.53;;;;;;;1.48;100.00;94918.59;5032121;28;20046;-83
2022/01/09 11:34:10;;;;;;;8.57;2.10;;;;;;;1.46;100.00;94929.06;5008922;28;20113;-84
2022/01/09 11:37:00;;;;;;;7.43;1.70;;;;;;;1.42;100.00;94922.53;5033307;28;20554;-84
2022/01/09 11:39:35;;;;;;;7.63;1.30;;;;;;;1.45;100.00;94917.09;5019906;28;20464;-84
2022/01/09 11:42:20;;;;;;;8.50;1.77;;;;;;;1.53;100.00;94925.00;5038955;28;20440;-83
2022/01/09 11:44:56;;;;;;;10.30;2.60;;;;;;;1.68;100.00;94919.38;5030137;28;20440;-83